createdAt,value
2023-04-17T00:00:25.787Z,23.60
2023-04-17T00:01:25.795Z,23.40
2023-04-17T00:02:26.044Z,23.32
2023-04-17T00:03:25.913Z,23.09
2023-04-17T00:04:25.884Z,23.28
2023-04-17T00:05:25.843Z,23.06
2023-04-17T00:06:25.826Z,22.95
2023-04-17T00:07:25.832Z,22.97
2023-04-17T00:08:25.841Z,23.08
2023-04-17T00:09:25.833Z,22.71
2023-04-17T00:10:25.849Z,22.75
2023-04-17T00:11:25.853Z,22.62
2023-04-17T00:12:25.852Z,22.64
2023-04-17T00:13:25.852Z,22.64
2023-04-17T00:14:25.869Z,22.75
2023-04-17T00:15:25.879Z,22.38
2023-04-17T00:16:25.895Z,22.61
2023-04-17T00:17:25.888Z,22.34
2023-04-17T00:18:25.893Z,21.98
2023-04-17T00:19:25.894Z,22.16
2023-04-17T00:20:25.913Z,22.03
2023-04-17T00:21:25.914Z,22.00
2023-04-17T00:22:25.928Z,21.77
2023-04-17T00:23:25.958Z,21.99
2023-04-17T00:24:25.988Z,21.90
2023-04-17T00:25:26.023Z,21.63
2023-04-17T00:26:26.041Z,21.75
2023-04-17T00:27:26.070Z,21.77
2023-04-17T00:28:26.095Z,21.67
2023-04-17T00:29:26.137Z,21.50
2023-04-17T00:30:26.174Z,21.54
2023-04-17T00:31:26.210Z,21.49
2023-04-17T00:32:26.248Z,21.46
2023-04-17T00:33:26.254Z,21.17
2023-04-17T00:34:26.288Z,21.23
2023-04-17T00:35:26.331Z,21.24
2023-04-17T00:36:26.350Z,20.81
2023-04-17T00:37:26.391Z,21.03
2023-04-17T00:38:26.416Z,20.81
2023-04-17T00:39:26.445Z,20.93
2023-04-17T00:40:26.477Z,21.06
2023-04-17T00:41:26.512Z,20.98
2023-04-17T00:42:26.530Z,20.72
2023-04-17T00:43:26.550Z,20.75
2023-04-17T00:44:26.554Z,20.77
2023-04-17T00:45:26.607Z,20.78
2023-04-17T00:46:26.630Z,20.78
2023-04-17T00:47:26.629Z,20.81
2023-04-17T00:48:26.623Z,20.91
2023-04-17T00:49:26.618Z,20.74
2023-04-17T00:50:26.620Z,20.82
2023-04-17T00:51:26.622Z,20.86
2023-04-17T00:52:26.671Z,20.84
2023-04-17T00:53:26.619Z,20.50
2023-04-17T00:54:26.634Z,20.52
2023-04-17T00:55:26.633Z,20.33
2023-04-17T00:56:26.645Z,20.35
2023-04-17T00:57:26.708Z,20.20
2023-04-17T00:58:26.631Z,20.20
2023-04-17T00:59:26.645Z,20.23
2023-04-17T01:00:26.654Z,20.25
2023-04-17T01:01:26.682Z,20.28
2023-04-17T01:02:26.921Z,19.97
2023-04-17T01:03:26.704Z,19.73
2023-04-17T01:04:26.794Z,20.12
2023-04-17T01:05:26.657Z,19.77
2023-04-17T01:06:26.666Z,19.79
2023-04-17T01:07:26.662Z,19.67
2023-04-17T01:08:26.682Z,19.69
2023-04-17T01:09:26.691Z,19.59
2023-04-17T01:10:26.685Z,19.71
2023-04-17T01:11:26.692Z,19.48
2023-04-17T01:12:26.664Z,19.59
2023-04-17T01:13:26.701Z,19.51
2023-04-17T01:14:26.713Z,19.38
2023-04-17T01:15:26.736Z,19.25
2023-04-17T01:16:26.907Z,19.14
2023-04-17T01:17:26.817Z,19.39
2023-04-17T01:18:26.821Z,19.17
2023-04-17T01:19:26.840Z,19.08
2023-04-17T01:20:26.873Z,19.16
2023-04-17T01:21:26.910Z,19.20
2023-04-17T01:22:26.928Z,18.98
2023-04-17T01:23:26.953Z,18.67
2023-04-17T01:24:26.988Z,18.90
2023-04-17T01:25:27.059Z,18.91
2023-04-17T01:26:27.064Z,18.70
2023-04-17T01:27:27.086Z,18.61
2023-04-17T01:28:27.115Z,18.72
2023-04-17T01:29:27.160Z,18.23
2023-04-17T01:30:27.280Z,18.62
2023-04-17T01:31:27.370Z,18.45
2023-04-17T01:32:27.283Z,18.54
2023-04-17T01:33:27.269Z,18.44
2023-04-17T01:34:27.302Z,18.30
2023-04-17T01:35:27.347Z,18.34
2023-04-17T01:36:27.360Z,18.24
2023-04-17T01:37:27.388Z,18.26
2023-04-17T01:38:27.409Z,18.04
2023-04-17T01:39:27.440Z,18.10
2023-04-17T01:40:27.459Z,18.07
2023-04-17T01:41:27.485Z,17.83
2023-04-17T01:42:27.516Z,17.95
2023-04-17T01:43:27.547Z,17.66
2023-04-17T01:44:27.590Z,17.70
2023-04-17T01:45:27.615Z,17.70
2023-04-17T01:46:27.694Z,17.78
2023-04-17T01:47:27.688Z,17.65
2023-04-17T01:48:27.700Z,17.57
2023-04-17T01:49:27.742Z,17.47
2023-04-17T01:50:27.802Z,17.56
2023-04-17T01:51:27.791Z,17.41
2023-04-17T01:52:27.810Z,17.33
2023-04-17T01:53:27.844Z,17.35
2023-04-17T01:54:27.886Z,17.31
2023-04-17T01:55:27.916Z,17.29
2023-04-17T01:56:27.940Z,17.22
2023-04-17T01:57:27.959Z,17.14
2023-04-17T01:58:27.992Z,17.17
2023-04-17T01:59:28.036Z,17.03
2023-04-17T02:00:28.064Z,16.84
2023-04-17T02:01:28.107Z,16.94
2023-04-17T02:02:28.238Z,17.10
2023-04-17T02:03:28.369Z,16.92
2023-04-17T02:04:28.239Z,16.81
2023-04-17T02:05:28.209Z,16.85
2023-04-17T02:06:28.255Z,16.74
2023-04-17T02:07:28.281Z,16.87
2023-04-17T02:08:28.315Z,16.82
2023-04-17T02:09:28.347Z,16.58
2023-04-17T02:10:28.386Z,16.52
2023-04-17T02:11:28.446Z,16.54
2023-04-17T02:12:28.453Z,16.47
2023-04-17T02:13:28.497Z,16.52
2023-04-17T02:14:28.534Z,16.40
2023-04-17T02:15:28.562Z,16.40
2023-04-17T02:16:28.702Z,16.35
2023-04-17T02:17:28.665Z,16.24
2023-04-17T02:18:28.687Z,16.22
2023-04-17T02:19:28.712Z,16.20
2023-04-17T02:20:28.748Z,16.02
2023-04-17T02:21:28.784Z,16.26
2023-04-17T02:22:28.821Z,16.12
2023-04-17T02:23:28.850Z,16.02
2023-04-17T02:24:28.888Z,15.95
2023-04-17T02:25:28.919Z,15.85
2023-04-17T02:26:28.954Z,15.90
2023-04-17T02:27:28.982Z,15.81
2023-04-17T02:28:29.022Z,15.88
2023-04-17T02:29:29.063Z,15.62
2023-04-17T02:30:29.094Z,15.78
2023-04-17T02:31:29.187Z,15.67
2023-04-17T02:32:29.186Z,15.73
2023-04-17T02:33:29.199Z,15.63
2023-04-17T02:34:29.240Z,15.58
2023-04-17T02:35:29.272Z,15.56
2023-04-17T02:36:29.276Z,15.58
2023-04-17T02:37:29.283Z,15.59
2023-04-17T02:38:29.263Z,15.60
2023-04-17T02:39:29.257Z,15.62
2023-04-17T02:40:29.261Z,15.69
2023-04-17T02:41:29.264Z,15.50
2023-04-17T02:42:29.261Z,15.45
2023-04-17T02:43:29.261Z,15.31
2023-04-17T02:44:29.261Z,15.49
2023-04-17T02:45:29.257Z,15.33
2023-04-17T02:46:29.323Z,15.29
2023-04-17T02:47:29.280Z,15.22
2023-04-17T02:48:29.258Z,15.26
2023-04-17T02:49:29.246Z,15.21
2023-04-17T02:50:29.241Z,15.08
2023-04-17T02:51:29.277Z,15.05
2023-04-17T02:52:29.318Z,15.17
2023-04-17T02:53:29.358Z,14.95
2023-04-17T02:54:29.410Z,14.92
2023-04-17T02:55:29.465Z,14.98
2023-04-17T02:56:29.521Z,15.06
2023-04-17T02:57:29.553Z,14.76
2023-04-17T02:58:29.603Z,14.70
2023-04-17T02:59:29.777Z,12.90
2023-04-17T03:00:29.696Z,10.65
2023-04-17T03:01:29.853Z,9.05
2023-04-17T03:02:29.904Z,7.86
2023-04-17T03:03:30.078Z,6.74
2023-04-17T03:04:29.938Z,5.54
2023-04-17T03:05:30.003Z,4.56
2023-04-17T03:06:30.047Z,3.86
2023-04-17T03:07:30.050Z,3.15
2023-04-17T03:08:31.853Z,2.66
2023-04-17T03:09:30.071Z,2.25
2023-04-17T03:10:30.056Z,1.97
2023-04-17T03:11:30.067Z,1.75
2023-04-17T03:12:30.075Z,1.49
2023-04-17T03:13:30.069Z,1.31
2023-04-17T03:14:30.074Z,1.15
2023-04-17T03:15:30.060Z,1.02
2023-04-17T03:16:30.127Z,0.92
2023-04-17T03:17:30.089Z,0.81
2023-04-17T03:18:30.070Z,0.74
2023-04-17T03:19:30.061Z,0.67
2023-04-17T03:20:30.079Z,0.62
2023-04-17T03:21:30.072Z,0.57
2023-04-17T03:22:30.076Z,0.51
2023-04-17T03:23:30.081Z,0.50
2023-04-17T03:24:30.083Z,0.50
2023-04-17T03:25:30.073Z,0.50
2023-04-17T03:26:30.082Z,0.47
2023-04-17T03:27:30.068Z,0.45
2023-04-17T03:28:30.069Z,0.42
2023-04-17T03:29:30.083Z,0.39
2023-04-17T03:30:30.085Z,0.37
2023-04-17T03:31:30.113Z,0.42
2023-04-17T03:32:30.131Z,0.49
2023-04-17T03:33:30.096Z,0.50
2023-04-17T03:34:30.092Z,0.50
2023-04-17T03:35:30.103Z,0.50
2023-04-17T03:36:30.138Z,0.50
2023-04-17T03:37:30.115Z,0.51
2023-04-17T03:38:30.119Z,0.50
2023-04-17T03:39:30.158Z,0.50
2023-04-17T03:40:31.447Z,0.51
2023-04-17T03:41:30.242Z,0.50
2023-04-17T03:42:30.300Z,0.50
2023-04-17T03:43:30.358Z,0.51
2023-04-17T03:44:30.415Z,0.50
2023-04-17T03:45:30.477Z,0.50
2023-04-17T03:46:30.630Z,0.50
2023-04-17T03:47:30.626Z,0.50
2023-04-17T03:48:30.666Z,0.50
2023-04-17T03:49:30.704Z,0.50
2023-04-17T03:50:30.774Z,0.51
2023-04-17T03:51:30.843Z,0.51
2023-04-17T03:52:30.895Z,0.51
2023-04-17T03:53:30.993Z,0.53
2023-04-17T03:54:31.026Z,0.51
2023-04-17T03:55:31.084Z,0.51
2023-04-17T03:56:31.154Z,0.51
2023-04-17T03:57:31.205Z,0.50
2023-04-17T03:58:31.305Z,0.50
2023-04-17T03:59:31.349Z,0.51
2023-04-17T04:00:31.414Z,0.50
2023-04-17T04:01:31.484Z,0.50
2023-04-17T04:02:31.637Z,0.50
2023-04-17T04:03:31.804Z,0.50
2023-04-17T04:04:31.742Z,0.50
2023-04-17T04:05:31.559Z,0.51
2023-04-17T04:06:31.573Z,0.51
2023-04-17T04:07:31.584Z,0.49
2023-04-17T04:08:31.587Z,0.50
2023-04-17T04:09:31.580Z,0.52
2023-04-17T04:10:31.596Z,0.50
2023-04-17T04:11:31.652Z,0.51
2023-04-17T04:12:31.719Z,0.50
2023-04-17T04:13:31.783Z,0.51
2023-04-17T04:14:31.840Z,0.51
2023-04-17T04:15:31.922Z,0.51
2023-04-17T04:16:32.015Z,0.51
2023-04-17T04:17:32.078Z,0.51
2023-04-17T04:18:32.136Z,0.51
2023-04-17T04:19:32.215Z,0.52
2023-04-17T04:20:32.291Z,0.51
2023-04-17T04:21:32.361Z,0.51
2023-04-17T04:22:32.420Z,0.51
2023-04-17T04:23:32.482Z,0.51
2023-04-17T04:24:32.560Z,0.51
2023-04-17T04:25:32.640Z,0.50
2023-04-17T04:26:32.734Z,0.52
2023-04-17T04:27:32.801Z,0.52
2023-04-17T04:28:32.839Z,0.52
2023-04-17T04:29:32.905Z,0.52
2023-04-17T04:30:32.939Z,0.53
2023-04-17T04:31:33.038Z,0.52
2023-04-17T04:32:33.135Z,0.53
2023-04-17T04:33:33.068Z,0.53
2023-04-17T04:34:33.073Z,0.53
2023-04-17T04:35:33.114Z,0.55
2023-04-17T04:36:33.193Z,0.56
2023-04-17T04:37:33.210Z,0.55
2023-04-17T04:38:33.406Z,0.54
2023-04-17T04:39:33.244Z,0.54
2023-04-17T04:40:33.300Z,0.56
2023-04-17T04:41:33.321Z,0.55
2023-04-17T04:42:33.381Z,0.53
2023-04-17T04:43:33.444Z,0.55
2023-04-17T04:44:33.446Z,0.56
2023-04-17T04:45:33.440Z,0.55
2023-04-17T04:46:33.485Z,0.55
2023-04-17T04:47:33.535Z,0.55
2023-04-17T04:48:33.506Z,0.55
2023-04-17T04:49:33.482Z,0.55
2023-04-17T04:50:33.506Z,0.56
2023-04-17T04:51:33.513Z,0.57
2023-04-17T04:52:33.546Z,0.59
2023-04-17T04:53:33.538Z,0.58
2023-04-17T04:54:33.548Z,0.59
2023-04-17T04:55:33.560Z,0.60
2023-04-17T04:56:33.564Z,0.61
2023-04-17T04:57:33.573Z,0.64
2023-04-17T04:58:33.587Z,0.64
2023-04-17T04:59:33.588Z,0.62
2023-04-17T05:00:33.606Z,0.60
2023-04-17T05:01:33.673Z,0.61
2023-04-17T05:02:33.910Z,0.59
2023-04-17T05:03:33.800Z,0.59
2023-04-17T05:04:33.742Z,0.59
2023-04-17T05:05:33.660Z,0.59
2023-04-17T05:06:33.690Z,0.59
2023-04-17T05:07:33.680Z,0.58
2023-04-17T05:08:33.678Z,0.58
2023-04-17T05:09:33.668Z,0.58
2023-04-17T05:10:33.684Z,0.60
2023-04-17T05:11:33.704Z,0.62
2023-04-17T05:12:33.710Z,0.69
2023-04-17T05:13:33.711Z,0.85
2023-04-17T05:14:33.714Z,0.98
2023-04-17T05:15:33.740Z,1.11
2023-04-17T05:16:33.759Z,1.29
2023-04-17T05:17:33.763Z,1.41
2023-04-17T05:18:33.753Z,1.61
2023-04-17T05:19:33.770Z,1.68
2023-04-17T05:20:33.791Z,1.90
2023-04-17T05:21:33.830Z,2.09
2023-04-17T05:22:33.895Z,2.22
2023-04-17T05:23:33.921Z,2.33
2023-04-17T05:24:33.977Z,2.49
2023-04-17T05:25:34.014Z,2.59
2023-04-17T05:26:34.086Z,2.73
2023-04-17T05:27:34.115Z,2.85
2023-04-17T05:28:34.139Z,3.08
2023-04-17T05:29:34.171Z,3.15
2023-04-17T05:30:34.218Z,3.41
2023-04-17T05:31:34.320Z,3.78
2023-04-17T05:32:34.369Z,3.45
2023-04-17T05:33:34.676Z,1.90
2023-04-17T05:34:34.437Z,1.70
2023-04-17T05:35:34.477Z,1.13
2023-04-17T05:36:34.481Z,0.86
2023-04-17T05:37:34.493Z,0.86
2023-04-17T05:38:34.505Z,1.14
2023-04-17T05:39:34.524Z,1.24
2023-04-17T05:40:34.537Z,1.57
2023-04-17T05:41:34.541Z,1.68
2023-04-17T05:42:34.529Z,2.05
2023-04-17T05:43:34.529Z,2.44
2023-04-17T05:44:34.525Z,2.46
2023-04-17T05:45:34.593Z,2.59
2023-04-17T05:46:34.533Z,2.90
2023-04-17T05:47:34.576Z,3.53
2023-04-17T05:48:34.609Z,4.81
2023-04-17T05:49:34.554Z,5.36
2023-04-17T05:50:34.581Z,5.89
2023-04-17T05:51:34.567Z,5.92
2023-04-17T05:52:34.560Z,1.91
2023-04-17T05:53:34.564Z,1.21
2023-04-17T05:54:34.575Z,0.76
2023-04-17T05:55:34.584Z,0.61
2023-04-17T05:56:34.597Z,0.57
2023-04-17T05:57:34.618Z,0.49
2023-04-17T05:58:34.620Z,0.47
2023-04-17T05:59:34.639Z,0.51
2023-04-17T06:00:34.659Z,0.47
2023-04-17T06:01:34.678Z,0.52
2023-04-17T06:02:34.818Z,0.55
2023-04-17T06:03:35.052Z,0.51
2023-04-17T06:04:34.984Z,0.59
2023-04-17T06:05:34.893Z,0.64
2023-04-17T06:06:34.944Z,0.84
2023-04-17T06:07:34.973Z,0.97
2023-04-17T06:08:35.007Z,1.20
2023-04-17T06:09:35.012Z,1.54
2023-04-17T06:10:35.072Z,1.88
2023-04-17T06:11:35.143Z,2.26
2023-04-17T06:12:35.205Z,2.54
2023-04-17T06:13:35.268Z,2.96
2023-04-17T06:14:35.368Z,3.31
2023-04-17T06:15:35.331Z,3.81
2023-04-17T06:16:35.394Z,4.22
2023-04-17T06:17:35.444Z,4.45
2023-04-17T06:18:35.515Z,5.62
2023-04-17T06:19:35.607Z,6.50
2023-04-17T06:20:36.573Z,7.74
2023-04-17T06:21:35.646Z,7.75
2023-04-17T06:22:35.687Z,7.75
2023-04-17T06:23:35.676Z,3.90
2023-04-17T06:24:35.704Z,4.95
2023-04-17T06:25:35.702Z,3.37
2023-04-17T06:26:35.710Z,1.91
2023-04-17T06:27:36.944Z,1.41
2023-04-17T06:28:35.747Z,1.37
2023-04-17T06:29:35.749Z,1.44
2023-04-17T06:30:35.879Z,1.41
2023-04-17T06:31:35.827Z,1.38
2023-04-17T06:32:35.780Z,0.94
2023-04-17T06:33:35.796Z,0.83
2023-04-17T06:34:38.183Z,0.66
2023-04-17T06:35:36.814Z,0.50
2023-04-17T06:36:35.822Z,0.46
2023-04-17T06:37:35.830Z,0.39
2023-04-17T06:38:35.837Z,0.44
2023-04-17T06:39:35.849Z,0.56
2023-04-17T06:40:35.870Z,0.50
2023-04-17T06:41:35.927Z,0.47
2023-04-17T06:42:35.891Z,0.65
2023-04-17T06:43:35.918Z,0.78
2023-04-17T06:44:35.929Z,1.17
2023-04-17T06:45:35.946Z,1.57
2023-04-17T06:46:36.045Z,2.24
2023-04-17T06:47:36.090Z,3.08
2023-04-17T06:48:36.067Z,4.00
2023-04-17T06:49:36.076Z,5.20
2023-04-17T06:50:36.114Z,6.44
2023-04-17T06:51:36.201Z,7.76
2023-04-17T06:52:36.245Z,8.80
2023-04-17T06:53:36.340Z,10.49
2023-04-17T06:54:36.311Z,10.54
2023-04-17T06:55:36.325Z,10.58
2023-04-17T06:56:36.326Z,10.64
2023-04-17T06:57:36.327Z,11.27
2023-04-17T06:58:36.330Z,12.60
2023-04-17T06:59:36.327Z,14.58
2023-04-17T07:00:36.360Z,19.24
2023-04-17T07:01:36.447Z,21.02
2023-04-17T07:02:36.465Z,22.65
2023-04-17T07:03:36.520Z,23.91
2023-04-17T07:04:36.390Z,24.47
2023-04-17T07:05:36.372Z,25.31
2023-04-17T07:06:36.380Z,25.29
2023-04-17T07:07:36.374Z,26.58
2023-04-17T07:08:36.374Z,28.48
2023-04-17T07:09:36.384Z,29.76
2023-04-17T07:10:36.399Z,30.28
2023-04-17T07:11:36.395Z,31.84
2023-04-17T07:12:36.403Z,32.37
2023-04-17T07:13:36.425Z,32.96
2023-04-17T07:14:36.398Z,35.63
2023-04-17T07:15:36.445Z,39.16
2023-04-17T07:16:36.493Z,40.76
2023-04-17T07:17:36.569Z,42.58
2023-04-17T07:18:36.559Z,45.11
2023-04-17T07:19:36.615Z,46.39
2023-04-17T07:20:36.636Z,46.43
2023-04-17T07:21:36.622Z,46.71
2023-04-17T07:22:36.616Z,48.09
2023-04-17T07:23:36.621Z,51.38
2023-04-17T07:24:36.630Z,58.24
2023-04-17T07:25:36.629Z,61.93
2023-04-17T07:26:36.632Z,64.55
2023-04-17T07:27:36.607Z,65.63
2023-04-17T07:28:36.609Z,68.16
2023-04-17T07:29:36.615Z,70.28
2023-04-17T07:30:36.617Z,66.55
2023-04-17T07:31:36.635Z,67.59
2023-04-17T07:32:36.656Z,66.36
2023-04-17T07:33:38.234Z,65.15
2023-04-17T07:34:36.601Z,67.71
2023-04-17T07:35:36.610Z,62.39
2023-04-17T07:36:36.628Z,36.42
2023-04-17T07:37:36.587Z,37.95
2023-04-17T07:38:37.269Z,32.61
2023-04-17T07:39:36.608Z,30.97
2023-04-17T07:40:36.603Z,33.55
2023-04-17T07:41:36.589Z,37.30
2023-04-17T07:42:36.577Z,35.40
2023-04-17T07:43:36.620Z,29.19
2023-04-17T07:44:36.598Z,23.18
2023-04-17T07:45:37.026Z,24.27
2023-04-17T07:46:36.667Z,21.14
2023-04-17T07:47:36.712Z,20.80
2023-04-17T07:48:36.698Z,18.82
2023-04-17T07:49:36.770Z,15.34
2023-04-17T07:50:36.849Z,15.07
2023-04-17T07:51:36.902Z,13.14
2023-04-17T07:52:36.947Z,11.44
2023-04-17T07:53:36.952Z,11.45
2023-04-17T07:54:36.993Z,11.02
2023-04-17T07:55:36.925Z,9.72
2023-04-17T07:56:36.921Z,9.71
2023-04-17T07:57:36.923Z,8.56
2023-04-17T07:58:36.904Z,7.13
2023-04-17T07:59:36.908Z,6.56
2023-04-17T08:00:36.918Z,7.89
2023-04-17T08:01:36.997Z,10.12
2023-04-17T08:02:37.057Z,9.73
2023-04-17T08:03:37.081Z,9.83
2023-04-17T08:04:37.022Z,10.37
2023-04-17T08:05:37.044Z,11.11
2023-04-17T08:06:37.061Z,11.80
2023-04-17T08:07:37.101Z,12.66
2023-04-17T08:08:37.114Z,14.16
2023-04-17T08:09:37.158Z,15.39
2023-04-17T08:10:37.174Z,16.19
2023-04-17T08:11:49.541Z,17.46
2023-04-17T08:12:38.214Z,14.54
2023-04-17T08:13:37.216Z,15.63
2023-04-17T08:14:37.192Z,17.65
2023-04-17T08:15:39.449Z,19.79
2023-04-17T08:16:37.198Z,23.68
2023-04-17T08:17:37.210Z,24.77
2023-04-17T08:18:37.172Z,24.83
2023-04-17T08:19:37.174Z,25.60
2023-04-17T08:20:37.173Z,26.43
2023-04-17T08:21:37.162Z,25.41
2023-04-17T08:22:37.174Z,17.92
2023-04-17T08:23:37.200Z,21.54
2023-04-17T08:24:37.259Z,22.48
2023-04-17T08:25:37.219Z,22.53
2023-04-17T08:26:37.193Z,22.76
2023-04-17T08:27:37.180Z,23.45
2023-04-17T08:28:37.190Z,23.32
2023-04-17T08:29:37.175Z,20.17
2023-04-17T08:30:37.244Z,19.43
2023-04-17T08:31:37.180Z,14.76
2023-04-17T08:32:37.170Z,10.41
2023-04-17T08:33:37.150Z,8.17
2023-04-17T08:34:37.149Z,6.21
2023-04-17T08:35:37.162Z,5.66
2023-04-17T08:36:37.154Z,4.83
2023-04-17T08:37:37.164Z,4.62
2023-04-17T08:38:37.163Z,5.36
2023-04-17T08:39:37.180Z,3.62
2023-04-17T08:40:37.195Z,3.90
2023-04-17T08:41:37.200Z,5.08
2023-04-17T08:42:37.192Z,4.00
2023-04-17T08:43:37.212Z,3.57
2023-04-17T08:44:37.223Z,4.09
2023-04-17T08:45:37.216Z,3.23
2023-04-17T08:46:37.286Z,2.79
2023-04-17T08:47:37.297Z,3.18
2023-04-17T08:48:37.282Z,3.66
2023-04-17T08:49:37.317Z,4.75
2023-04-17T08:50:37.318Z,5.41
2023-04-17T08:51:37.343Z,5.52
2023-04-17T08:52:37.349Z,7.02
2023-04-17T08:53:37.356Z,9.40
2023-04-17T08:54:37.368Z,11.52
2023-04-17T08:55:37.434Z,13.94
2023-04-17T08:56:37.465Z,15.57
2023-04-17T08:57:37.549Z,18.07
2023-04-17T08:58:37.603Z,20.37
2023-04-17T08:59:37.666Z,22.68
2023-04-17T09:00:37.737Z,23.10
2023-04-17T09:01:37.912Z,25.08
2023-04-17T09:02:37.896Z,25.15
2023-04-17T09:03:37.820Z,25.86
2023-04-17T09:04:37.987Z,27.74
2023-04-17T09:05:37.755Z,24.31
2023-04-17T09:06:37.751Z,25.16
2023-04-17T09:07:37.752Z,25.50
2023-04-17T09:08:37.769Z,26.34
2023-04-17T09:09:37.759Z,28.23
2023-04-17T09:10:37.775Z,32.36
2023-04-17T09:11:37.754Z,33.29
2023-04-17T09:12:37.740Z,33.18
2023-04-17T09:13:37.759Z,34.06
2023-04-17T09:14:37.757Z,34.96
2023-04-17T09:15:37.767Z,36.60
2023-04-17T09:16:37.763Z,34.96
2023-04-17T09:17:37.858Z,35.12
2023-04-17T09:18:37.823Z,35.65
2023-04-17T09:19:37.845Z,35.45
2023-04-17T09:20:37.876Z,36.16
2023-04-17T09:21:37.920Z,32.00
2023-04-17T09:22:37.962Z,30.28
2023-04-17T09:23:38.020Z,30.58
2023-04-17T09:24:38.065Z,29.96
2023-04-17T09:25:38.095Z,30.05
2023-04-17T09:26:38.125Z,30.32
2023-04-17T09:27:38.166Z,31.35
2023-04-17T09:28:38.190Z,31.20
2023-04-17T09:29:38.246Z,31.83
2023-04-17T09:30:38.310Z,34.17
2023-04-17T09:31:38.340Z,34.10
2023-04-17T09:32:38.412Z,35.58
2023-04-17T09:33:38.401Z,36.86
2023-04-17T09:34:38.378Z,36.93
2023-04-17T09:35:39.874Z,37.04
2023-04-17T09:36:38.389Z,38.13
2023-04-17T09:37:38.360Z,39.83
2023-04-17T09:38:38.363Z,39.17
2023-04-17T09:39:38.360Z,41.36
2023-04-17T09:40:38.360Z,41.49
2023-04-17T09:41:38.344Z,37.32
2023-04-17T09:42:38.333Z,41.31
2023-04-17T09:43:38.336Z,37.42
2023-04-17T09:44:38.332Z,41.56
2023-04-17T09:45:38.338Z,33.51
2023-04-17T09:46:38.827Z,38.78
2023-04-17T09:47:38.397Z,41.60
2023-04-17T09:48:38.301Z,45.47
2023-04-17T09:49:38.305Z,47.06
2023-04-17T09:50:39.098Z,49.17
2023-04-17T09:51:38.312Z,50.62
2023-04-17T09:52:38.284Z,51.78
2023-04-17T09:53:38.270Z,42.07
2023-04-17T09:54:38.510Z,48.80
2023-04-17T09:55:38.496Z,53.94
2023-04-17T09:56:38.356Z,56.69
2023-04-17T09:57:38.388Z,58.86
2023-04-17T09:58:38.420Z,56.90
2023-04-17T09:59:38.432Z,49.86
2023-04-17T10:00:38.479Z,46.05
2023-04-17T10:01:38.598Z,47.96
2023-04-17T10:02:38.706Z,44.61
2023-04-17T10:03:38.695Z,43.20
2023-04-17T10:04:38.660Z,43.72
2023-04-17T10:05:38.650Z,42.22
2023-04-17T10:06:38.675Z,40.98
2023-04-17T10:07:38.700Z,38.29
2023-04-17T10:08:38.709Z,38.36
2023-04-17T10:09:38.744Z,39.22
2023-04-17T10:10:38.814Z,40.72
2023-04-17T10:11:38.847Z,39.01
2023-04-17T10:12:38.857Z,19.99
2023-04-17T10:13:38.884Z,16.43
2023-04-17T10:14:38.929Z,8.71
2023-04-17T10:15:38.917Z,9.67
2023-04-17T10:16:39.043Z,7.55
2023-04-17T10:17:39.048Z,4.58
2023-04-17T10:18:39.085Z,4.45
2023-04-17T10:19:39.132Z,3.94
2023-04-17T10:20:39.143Z,3.60
2023-04-17T10:21:39.131Z,2.48
2023-04-17T10:22:39.130Z,2.12
2023-04-17T10:23:39.113Z,2.15
2023-04-17T10:24:39.120Z,2.15
2023-04-17T10:25:39.115Z,1.90
2023-04-17T10:26:39.130Z,1.61
2023-04-17T10:27:39.102Z,1.97
2023-04-17T10:28:39.114Z,2.69
2023-04-17T10:29:39.101Z,2.97
2023-04-17T10:31:39.128Z,4.10
2023-04-17T10:32:39.122Z,3.57
2023-04-17T10:33:39.104Z,3.61
2023-04-17T10:34:39.950Z,3.20
2023-04-17T10:35:39.076Z,3.20
2023-04-17T10:36:39.075Z,2.20
2023-04-17T10:37:39.103Z,3.57
2023-04-17T10:38:39.083Z,4.79
2023-04-17T10:39:39.110Z,6.90
2023-04-17T10:40:39.074Z,6.72
2023-04-17T10:41:39.076Z,7.78
2023-04-17T10:42:39.052Z,8.48
2023-04-17T10:43:39.043Z,6.84
2023-04-17T10:44:39.053Z,6.59
2023-04-17T10:45:39.068Z,5.73
2023-04-17T10:46:39.036Z,4.77
2023-04-17T10:47:39.050Z,4.26
2023-04-17T10:48:39.169Z,4.83
2023-04-17T10:49:39.021Z,5.58
2023-04-17T10:50:39.031Z,5.04
2023-04-17T10:51:39.026Z,5.62
2023-04-17T10:52:39.084Z,6.08
2023-04-17T10:53:39.039Z,6.10
2023-04-17T10:54:39.004Z,5.29
2023-04-17T10:55:39.006Z,6.18
2023-04-17T10:56:38.989Z,6.34
2023-04-17T10:57:38.993Z,6.53
2023-04-17T10:58:38.994Z,5.02
2023-04-17T10:59:38.965Z,4.17
2023-04-17T11:00:38.985Z,4.34
2023-04-17T11:01:39.009Z,3.00
2023-04-17T11:02:39.062Z,2.89
2023-04-17T11:03:39.020Z,3.43
2023-04-17T11:04:39.007Z,3.45
2023-04-17T11:05:38.932Z,3.57
2023-04-17T11:06:38.935Z,3.33
2023-04-17T11:07:38.929Z,3.46
2023-04-17T11:08:38.936Z,3.74
2023-04-17T11:09:38.914Z,4.29
2023-04-17T11:10:38.987Z,5.24
2023-04-17T11:11:44.234Z,5.46
2023-04-17T11:12:39.915Z,5.48
2023-04-17T11:13:38.921Z,5.65
2023-04-17T11:14:38.897Z,6.58
2023-04-17T11:15:38.885Z,9.07
2023-04-17T11:16:38.936Z,14.72
2023-04-17T11:17:38.913Z,9.99
2023-04-17T11:18:38.865Z,11.27
2023-04-17T11:19:38.854Z,9.06
2023-04-17T11:20:38.857Z,11.73
2023-04-17T11:21:38.844Z,13.41
2023-04-17T11:22:38.835Z,12.99
2023-04-17T11:23:38.827Z,12.67
2023-04-17T11:24:38.809Z,15.11
2023-04-17T11:25:38.810Z,12.38
2023-04-17T11:26:38.797Z,13.46
2023-04-17T11:27:38.785Z,13.51
2023-04-17T11:28:38.833Z,8.63
2023-04-17T11:29:38.867Z,6.93
2023-04-17T11:30:38.976Z,7.07
2023-04-17T11:31:39.070Z,6.58
2023-04-17T11:32:39.051Z,4.83
2023-04-17T11:33:39.083Z,4.01
2023-04-17T11:34:39.191Z,2.50
2023-04-17T11:35:39.199Z,2.19
2023-04-17T11:36:39.186Z,2.10
2023-04-17T11:37:39.186Z,1.88
2023-04-17T11:38:39.197Z,1.55
2023-04-17T11:39:39.211Z,1.31
2023-04-17T11:40:39.247Z,1.12
2023-04-17T11:41:39.321Z,0.99
2023-04-17T11:42:39.289Z,0.89
2023-04-17T11:43:39.312Z,0.85
2023-04-17T11:44:39.343Z,0.68
2023-04-17T11:45:39.359Z,0.65
2023-04-17T11:46:39.493Z,0.82
2023-04-17T11:47:39.456Z,1.12
2023-04-17T11:48:39.400Z,1.78
2023-04-17T11:49:39.399Z,3.27
2023-04-17T11:50:39.421Z,6.46
2023-04-17T11:51:39.469Z,9.05
2023-04-17T11:52:39.524Z,10.69
2023-04-17T11:53:39.586Z,13.02
2023-04-17T11:54:39.648Z,15.55
2023-04-17T11:55:39.656Z,16.02
2023-04-17T11:56:39.697Z,15.98
2023-04-17T11:57:39.739Z,17.27
2023-04-17T11:58:39.754Z,21.10
2023-04-17T11:59:39.794Z,21.68
2023-04-17T12:00:39.824Z,20.19
2023-04-17T12:01:39.838Z,18.31
2023-04-17T12:02:39.952Z,17.32
2023-04-17T12:03:41.099Z,17.31
2023-04-17T12:04:40.419Z,17.34
2023-04-17T12:05:39.942Z,17.79
2023-04-17T12:06:39.940Z,17.59
2023-04-17T12:07:39.908Z,18.71
2023-04-17T12:08:39.943Z,17.48
2023-04-17T12:09:39.950Z,18.40
2023-04-17T12:10:39.988Z,18.74
2023-04-17T12:11:39.995Z,18.25
2023-04-17T12:12:39.987Z,17.83
2023-04-17T12:13:39.998Z,16.28
2023-04-17T12:14:40.021Z,16.75
2023-04-17T12:15:40.034Z,16.78
2023-04-17T12:16:40.181Z,16.22
2023-04-17T12:17:40.199Z,17.82
2023-04-17T12:18:40.064Z,18.29
2023-04-17T12:19:40.064Z,18.56
2023-04-17T12:20:40.065Z,18.71
2023-04-17T12:21:40.079Z,18.74
2023-04-17T12:22:40.085Z,18.80
2023-04-17T12:23:40.112Z,18.39
2023-04-17T12:24:40.103Z,18.09
2023-04-17T12:25:40.110Z,16.11
2023-04-17T12:26:40.120Z,16.05
2023-04-17T12:27:40.145Z,16.89
2023-04-17T12:28:40.134Z,15.50
2023-04-17T12:30:40.308Z,15.58
2023-04-17T12:31:40.370Z,16.19
2023-04-17T12:32:40.324Z,16.57
2023-04-17T12:33:40.291Z,16.59
2023-04-17T12:34:40.296Z,16.72
2023-04-17T12:35:40.294Z,17.14
2023-04-17T12:36:40.361Z,18.10
2023-04-17T12:37:40.301Z,19.87
2023-04-17T12:38:40.301Z,20.35
2023-04-17T12:39:40.312Z,20.86
2023-04-17T12:40:40.293Z,20.91
2023-04-17T12:41:40.311Z,21.21
2023-04-17T12:42:48.702Z,22.23
2023-04-17T12:43:41.302Z,21.01
2023-04-17T12:44:40.289Z,21.84
2023-04-17T12:45:42.299Z,23.30
2023-04-17T12:46:40.314Z,26.29
2023-04-17T12:47:40.331Z,31.73
2023-04-17T12:48:40.304Z,33.20
2023-04-17T12:49:40.318Z,35.50
2023-04-17T12:50:40.302Z,37.10
2023-04-17T12:51:40.354Z,38.15
2023-04-17T12:52:40.434Z,40.61
2023-04-17T12:53:40.462Z,41.02
2023-04-17T12:54:40.524Z,43.74
2023-04-17T12:55:40.574Z,45.61
2023-04-17T12:56:40.635Z,48.05
2023-04-17T12:57:40.690Z,48.50
2023-04-17T12:58:40.751Z,51.51
2023-04-17T12:59:40.830Z,52.89
2023-04-17T13:00:41.035Z,54.89
2023-04-17T13:01:41.002Z,57.74
2023-04-17T13:02:41.114Z,58.78
2023-04-17T13:03:41.198Z,61.38
2023-04-17T13:04:41.266Z,62.11
2023-04-17T13:05:41.206Z,63.80